Hjaltland — VSTY8 — position and weather

sailwx.info

Track history (hours):
 
Tides and Currents Weather Stations Pressure Air Temp Water Temp Dewpoint Dewpoint Depression Visibility Wind Speed Wind Dir Waves Ship Positions

Hjaltland

Operator: NorthLink Orkey & Shetland Ferries Ltd

Last reported at 2020-Sep-29 06:58 UTC. Time now 2020-Sep-29 08:55 UTC.
Position N 57°09' W 002°05'.

Type: Ship. MMSI: 235450000.

Date/timePositionNaut miles runAvg speedWind from/ knotsBaromVisibWave heightAir tempDewpointWater temp
2020-Sep-29 06:58N 57°09' W 002°05'7 3.8
2020-Sep-29 05:00N 57°14' W 001°56'815.3
2020-Sep-29 04:30N 57°20' W 001°48'10616.1
2020-Sep-28 21:54N 58°60' W 002°58'0 0.0
2020-Sep-27 21:58N 58°60' W 002°58'10120.5
2020-Sep-27 17:01N 57°27' W 001°40'23 7.7
2020-Sep-27 14:00N 57°09' W 002°05'0 0.0
2020-Sep-27 13:00N 57°09' W 002°05'0 0.0
2020-Sep-27 10:00N 57°09' W 002°05'0 0.0
2020-Sep-27 07:30N 57°09' W 002°05'39 8.6
2020-Sep-27 03:00N 57°45' W 001°38'4 0.1
2020-Sep-25 20:30N 57°41' W 001°36'1413.8
2020-Sep-25 19:30N 57°27' W 001°39'24 4.7
2020-Sep-25 14:30N 57°09' W 002°05'0 0.0
2020-Sep-25 14:00N 57°09' W 002°05'0 0.0
2020-Sep-25 13:30N 57°09' W 002°05'0 0.0
2020-Sep-25 08:30N 57°09' W 002°05'0 0.0
2020-Sep-25 07:29N 57°09' W 002°05'0 0.0
2020-Sep-25 07:00N 57°09' W 002°05'0 0.0
2020-Sep-25 06:00N 57°09' W 002°05'2110.6
2020-Sep-25 04:00N 57°25' W 001°41'14 0.4
2020-Sep-23 20:00N 57°39' W 001°37'1017.6
2020-Sep-23 19:25N 57°28' W 001°37'017.6
2020-Sep-23 19:24N 57°28' W 001°37'717.6
2020-Sep-23 19:00N 57°22' W 001°43'18 4.5
2020-Sep-23 15:00N 57°09' W 002°05'0 0.0
2020-Sep-23 14:01N 57°09' W 002°05'0 0.0
2020-Sep-23 12:01N 57°09' W 002°05'0 0.0
2020-Sep-23 11:00N 57°09' W 002°05'0 0.0
2020-Sep-23 10:30N 57°09' W 002°05'47 1.3
2020-Sep-21 21:33N 57°53' W 001°36'113.3
2020-Sep-21 21:26N 57°52' W 001°36'1314.0
2020-Sep-21 20:30N 57°39' W 001°34'3411.3
2020-Sep-21 17:29N 57°09' W 002°05'0 0.0
2020-Sep-21 15:59N 57°09' W 002°05'0 0.0
2020-Sep-21 13:59N 57°09' W 002°05'0 0.0
2020-Sep-21 10:29N 57°09' W 002°05'0 0.0
2020-Sep-21 08:29N 57°09' W 002°05'0 0.0
2020-Sep-21 07:29N 57°09' W 002°05'1 0.5
2020-Sep-21 05:30N 57°09' W 002°04'5713.9
2020-Sep-21 01:27N 58°03' W 001°38'64 2.5
2020-Sep-20 00:00N 59°02' W 002°30'17 4.9
2020-Sep-19 20:25N 58°44' W 002°28'4123.3
2020-Sep-19 18:40N 58°06' W 001°60'2824.3
2020-Sep-19 17:30N 57°39' W 001°42'2323.4
2020-Sep-19 16:31N 57°17' W 001°52'11 4.3
2020-Sep-19 13:59N 57°09' W 002°05'0 0.0
2020-Sep-19 10:59N 57°09' W 002°05'0 0.0
2020-Sep-19 09:59N 57°09' W 002°05'0 0.0
2020-Sep-19 07:29N 57°09' W 002°05'0 0.0
2020-Sep-19 06:59N 57°09' W 002°05'  
Track history (hours):
 
Tides and Currents Weather Stations Pressure Air Temp Water Temp Dewpoint Dewpoint Depression Visibility Wind Speed Wind Dir Waves Ship Positions

Hjaltland

Operator: NorthLink Orkey & Shetland Ferries Ltd

Last reported at 2020-Sep-29 06:58 UTC. Time now 2020-Sep-29 08:55 UTC.
Position N 57°09' W 002°05'.

Type: Ship. MMSI: 235450000.

Date/timePositionNaut miles runAvg speedWind from/ knotsBaromVisibWave heightAir tempDewpointWater temp
2020-Sep-29 06:58N 57°09' W 002°05'7 3.8
2020-Sep-29 05:00N 57°14' W 001°56'815.3
2020-Sep-29 04:30N 57°20' W 001°48'10616.1
2020-Sep-28 21:54N 58°60' W 002°58'0 0.0
2020-Sep-27 21:58N 58°60' W 002°58'10120.5
2020-Sep-27 17:01N 57°27' W 001°40'23 7.7
2020-Sep-27 14:00N 57°09' W 002°05'0 0.0
2020-Sep-27 13:00N 57°09' W 002°05'0 0.0
2020-Sep-27 10:00N 57°09' W 002°05'0 0.0
2020-Sep-27 07:30N 57°09' W 002°05'39 8.6
2020-Sep-27 03:00N 57°45' W 001°38'4 0.1
2020-Sep-25 20:30N 57°41' W 001°36'1413.8
2020-Sep-25 19:30N 57°27' W 001°39'24 4.7
2020-Sep-25 14:30N 57°09' W 002°05'0 0.0
2020-Sep-25 14:00N 57°09' W 002°05'0 0.0
2020-Sep-25 13:30N 57°09' W 002°05'0 0.0
2020-Sep-25 08:30N 57°09' W 002°05'0 0.0
2020-Sep-25 07:29N 57°09' W 002°05'0 0.0
2020-Sep-25 07:00N 57°09' W 002°05'0 0.0
2020-Sep-25 06:00N 57°09' W 002°05'2110.6
2020-Sep-25 04:00N 57°25' W 001°41'14 0.4
2020-Sep-23 20:00N 57°39' W 001°37'1017.6
2020-Sep-23 19:25N 57°28' W 001°37'017.6
2020-Sep-23 19:24N 57°28' W 001°37'717.6
2020-Sep-23 19:00N 57°22' W 001°43'18 4.5
2020-Sep-23 15:00N 57°09' W 002°05'0 0.0
2020-Sep-23 14:01N 57°09' W 002°05'0 0.0
2020-Sep-23 12:01N 57°09' W 002°05'0 0.0
2020-Sep-23 11:00N 57°09' W 002°05'0 0.0
2020-Sep-23 10:30N 57°09' W 002°05'47 1.3
2020-Sep-21 21:33N 57°53' W 001°36'113.3
2020-Sep-21 21:26N 57°52' W 001°36'1314.0
2020-Sep-21 20:30N 57°39' W 001°34'3411.3
2020-Sep-21 17:29N 57°09' W 002°05'0 0.0
2020-Sep-21 15:59N 57°09' W 002°05'0 0.0
2020-Sep-21 13:59N 57°09' W 002°05'0 0.0
2020-Sep-21 10:29N 57°09' W 002°05'0 0.0
2020-Sep-21 08:29N 57°09' W 002°05'0 0.0
2020-Sep-21 07:29N 57°09' W 002°05'1 0.5
2020-Sep-21 05:30N 57°09' W 002°04'5713.9
2020-Sep-21 01:27N 58°03' W 001°38'64 2.5
2020-Sep-20 00:00N 59°02' W 002°30'17 4.9
2020-Sep-19 20:25N 58°44' W 002°28'4123.3
2020-Sep-19 18:40N 58°06' W 001°60'2824.3
2020-Sep-19 17:30N 57°39' W 001°42'2323.4
2020-Sep-19 16:31N 57°17' W 001°52'11 4.3
2020-Sep-19 13:59N 57°09' W 002°05'0 0.0
2020-Sep-19 10:59N 57°09' W 002°05'0 0.0
2020-Sep-19 09:59N 57°09' W 002°05'0 0.0
2020-Sep-19 07:29N 57°09' W 002°05'0 0.0
2020-Sep-19 06:59N 57°09' W 002°05'  

Dump ship's entire track history